Time;durP1;ratioP1;P1;durP2;ratioP2;P2;SDS_P1;SDS_P2;PMS_P1;PMS_P2;Temp;Humidity;BMP_temperature;BMP_pressure;BME280_temperature;BME280_humidity;BME280_pressure;Samples;Min_cycle;Max_cycle;Signal;HPM_P1;HPM_P2
2022/04/25 00:02:10;;;;;;;3.95;1.90;;;;;;;;;;5032176;28;20563;-75
2022/04/25 00:04:37;;;;;;;5.32;2.10;;;;;;;;;;5032206;28;20042;-75
2022/04/25 00:07:03;;;;;;;3.53;1.90;;;;;;;;;;5032273;28;20045;-74
2022/04/25 00:09:29;;;;;;;3.17;1.77;;;;;;;;;;5033243;28;20393;-75
2022/04/25 00:11:55;;;;;;;4.13;1.70;;;;;;;;;;5045409;28;20040;-75
2022/04/25 00:14:22;;;;;;;4.53;2.05;;;;;;;;;;5047421;28;20049;-75
2022/04/25 00:16:54;;;;;;;3.47;1.70;;;;;;;;;;5049733;28;20053;-75
2022/04/25 00:19:21;;;;;;;3.58;1.90;;;;;;;;;;5048759;28;20045;-75
2022/04/25 00:21:47;;;;;;;4.40;2.13;;;;;;;;;;5031737;28;20053;-75
2022/04/25 00:24:13;;;;;;;3.35;1.88;;;;;;;;;;5032206;28;20049;-75
2022/04/25 00:26:39;;;;;;;4.80;2.00;;;;;;;;;;5050880;28;20049;-75
2022/04/25 00:29:05;;;;;;;4.05;1.92;;;;;;;;;;5051700;28;20049;-75
2022/04/25 00:31:32;;;;;;;4.95;1.85;;;;;;;;;;5040319;28;20049;-75
2022/04/25 00:33:59;;;;;;;3.60;1.92;;;;;;;;;;5031987;28;20509;-75
2022/04/25 00:36:25;;;;;;;4.00;1.90;;;;;;;;;;5040782;28;20108;-75
2022/04/25 00:38:51;;;;;;;4.38;1.98;;;;;;;;;;5031798;28;20616;-75
2022/04/25 00:41:18;;;;;;;4.03;1.95;;;;;;;;;;5037200;28;20061;-75
2022/04/25 00:43:44;;;;;;;4.93;1.85;;;;;;;;;;5042299;28;20045;-75
2022/04/25 00:46:19;;;;;;;4.75;1.90;;;;;;;;;;5042987;28;20107;-75
2022/04/25 00:48:46;;;;;;;4.35;1.90;;;;;;;;;;5032138;28;20115;-74
2022/04/25 00:51:13;;;;;;;3.92;1.92;;;;;;;;;;5043236;28;20057;-75
2022/04/25 00:53:40;;;;;;;3.70;1.83;;;;;;;;;;5031154;28;20111;-75
2022/04/25 00:56:07;;;;;;;4.28;1.98;;;;;;;;;;5038189;28;20044;-75
2022/04/25 00:58:33;;;;;;;3.22;1.73;;;;;;;;;;5052135;28;20053;-75
2022/04/25 01:00:59;;;;;;;3.55;1.80;;;;;;;;;;5046665;28;20049;-74
2022/04/25 01:03:25;;;;;;;4.82;2.00;;;;;;;;;;5031525;28;20049;-75
2022/04/25 01:05:52;;;;;;;2.70;1.80;;;;;;;;;;5032783;28;20040;-75
2022/04/25 01:08:20;;;;;;;3.72;1.70;;;;;;;;;;5031949;28;20064;-75
2022/04/25 01:10:46;;;;;;;4.68;1.90;;;;;;;;;;5044373;28;20140;-75
2022/04/25 01:13:13;;;;;;;4.95;1.95;;;;;;;;;;5031209;28;20050;-76
2022/04/25 01:15:39;;;;;;;4.72;1.80;;;;;;;;;;5033367;28;19987;-75
2022/04/25 01:18:05;;;;;;;3.67;1.80;;;;;;;;;;5051582;28;19921;-76
2022/04/25 01:20:32;;;;;;;4.43;1.95;;;;;;;;;;5037993;28;20563;-76
2022/04/25 01:27:15;;;;;;;3.40;1.73;;;;;;;;;;5053653;28;20109;-76
2022/04/25 01:28:32;;;;;;;5.47;2.00;;;;;;;;;;5034964;28;20528;-76
2022/04/25 01:30:58;;;;;;;3.55;1.80;;;;;;;;;;5034891;28;20530;-76
2022/04/25 01:33:24;;;;;;;3.42;1.83;;;;;;;;;;5034465;28;20045;-76
2022/04/25 01:35:51;;;;;;;4.13;1.83;;;;;;;;;;5035320;28;20168;-76
2022/04/25 01:38:17;;;;;;;3.50;1.90;;;;;;;;;;5041432;28;20514;-75
2022/04/25 01:40:43;;;;;;;3.88;1.90;;;;;;;;;;5039114;28;20398;-76
2022/04/25 01:43:11;;;;;;;4.20;1.80;;;;;;;;;;5037683;28;20460;-76
2022/04/25 01:45:40;;;;;;;3.92;1.80;;;;;;;;;;5035046;28;20049;-76
2022/04/25 01:48:06;;;;;;;5.05;2.08;;;;;;;;;;5035156;28;20045;-76
2022/04/25 01:50:32;;;;;;;;;;;;;;;;;;5034744;28;20394;-76
2022/04/25 01:52:58;;;;;;;;;;;;;;;;;;5040300;28;19925;-76
2022/04/25 01:55:25;;;;;;;3.35;1.65;;;;;;;;;;5054316;28;19921;-76
2022/04/25 01:57:51;;;;;;;3.55;1.73;;;;;;;;;;5054847;28;19970;-76
2022/04/25 02:00:19;;;;;;;3.95;1.80;;;;;;;;;;5053081;28;20053;-76
2022/04/25 02:02:45;;;;;;;;;;;;;;;;;;5054257;28;20072;-76
2022/04/25 02:05:11;;;;;;;4.65;1.85;;;;;;;;;;5043374;28;19921;-76
2022/04/25 02:07:37;;;;;;;4.10;2.00;;;;;;;;;;5054024;28;20102;-76
2022/04/25 02:10:04;;;;;;;3.58;1.80;;;;;;;;;;5053403;28;20049;-76
2022/04/25 02:12:30;;;;;;;3.83;1.77;;;;;;;;;;5053833;28;20045;-75
2022/04/25 02:14:56;;;;;;;;;;;;;;;;;;5053383;28;20118;-75
2022/04/25 02:17:24;;;;;;;4.20;1.92;;;;;;;;;;5054184;28;20068;-76
2022/04/25 02:19:50;;;;;;;3.78;1.70;;;;;;;;;;5053313;28;20045;-76
2022/04/25 02:22:17;;;;;;;3.58;1.70;;;;;;;;;;5053891;28;20045;-75
2022/04/25 02:24:43;;;;;;;4.93;1.90;;;;;;;;;;5044231;28;20050;-76
2022/04/25 02:27:10;;;;;;;3.75;1.80;;;;;;;;;;5054013;28;20107;-76
2022/04/25 02:29:38;;;;;;;3.95;1.75;;;;;;;;;;5048812;28;20053;-76
2022/04/25 02:32:05;;;;;;;3.80;1.70;;;;;;;;;;5049640;28;20132;-76
2022/04/25 02:34:33;;;;;;;3.78;1.70;;;;;;;;;;5046718;28;19967;-76
2022/04/25 02:36:59;;;;;;;2.75;1.70;;;;;;;;;;5034166;28;20061;-75
2022/04/25 02:39:25;;;;;;;3.38;1.80;;;;;;;;;;5033767;28;20083;-76
2022/04/25 02:41:52;;;;;;;3.72;1.90;;;;;;;;;;5033725;28;20500;-76
2022/04/25 02:44:20;;;;;;;3.63;1.60;;;;;;;;;;5033417;28;20049;-76
2022/04/25 02:46:46;;;;;;;3.65;1.80;;;;;;;;;;5033994;28;20905;-76
2022/04/25 02:49:12;;;;;;;3.70;1.80;;;;;;;;;;5039081;28;19924;-76
2022/04/25 02:51:40;;;;;;;3.45;1.80;;;;;;;;;;5033673;28;20249;-76
2022/04/25 02:54:06;;;;;;;;;;;;;;;;;;5033413;28;20203;-76
2022/04/25 02:56:32;;;;;;;;;;;;;;;;;;5033969;28;19925;-76
2022/04/25 02:58:58;;;;;;;;;;;;;;;;;;5033965;28;19929;-76
2022/04/25 03:01:24;;;;;;;;;;;;;;;;;;5034052;28;20368;-76
2022/04/25 03:03:50;;;;;;;;;;;;;;;;;;5033227;28;20082;-76
2022/04/25 03:06:16;;;;;;;3.80;1.80;;;;;;;;;;5033480;28;19921;-76
2022/04/25 03:08:44;;;;;;;3.15;1.73;;;;;;;;;;5037496;28;20106;-76
2022/04/25 03:11:10;;;;;;;3.20;1.70;;;;;;;;;;5052346;28;20582;-75
2022/04/25 03:13:37;;;;;;;4.05;1.73;;;;;;;;;;5052302;28;20045;-76
2022/04/25 03:16:04;;;;;;;3.92;1.70;;;;;;;;;;5051029;28;20079;-76
2022/04/25 03:18:30;;;;;;;3.30;1.70;;;;;;;;;;5053520;28;20103;-75
2022/04/25 03:20:57;;;;;;;3.85;1.80;;;;;;;;;;5041168;28;19921;-76
2022/04/25 03:23:23;;;;;;;3.40;1.70;;;;;;;;;;5032567;28;20045;-76
2022/04/25 03:25:52;;;;;;;3.83;1.73;;;;;;;;;;5033546;28;20049;-76
2022/04/25 03:28:19;;;;;;;5.25;1.90;;;;;;;;;;5033022;28;20049;-75
2022/04/25 03:30:45;;;;;;;3.70;1.80;;;;;;;;;;5034229;28;20513;-76
2022/04/25 03:33:12;;;;;;;4.18;1.73;;;;;;;;;;5032059;28;20042;-76
2022/04/25 03:35:38;;;;;;;3.63;1.63;;;;;;;;;;5032982;28;20120;-76
2022/04/25 03:38:06;;;;;;;3.33;1.75;;;;;;;;;;5032500;28;20521;-75
2022/04/25 03:40:32;;;;;;;3.55;1.70;;;;;;;;;;5038268;28;20080;-76
2022/04/25 03:42:59;;;;;;;3.08;1.90;;;;;;;;;;5051599;28;20110;-76
2022/04/25 03:45:26;;;;;;;3.40;1.92;;;;;;;;;;5051553;28;20056;-76
2022/04/25 03:47:53;;;;;;;3.53;1.70;;;;;;;;;;5052728;28;20049;-76
2022/04/25 03:50:19;;;;;;;2.92;1.80;;;;;;;;;;5050405;28;20052;-76
2022/04/25 03:52:46;;;;;;;3.45;1.70;;;;;;;;;;5031655;28;20053;-76
2022/04/25 03:57:57;;;;;;;3.10;1.63;;;;;;;;;;5036381;28;20147;-76
2022/04/25 04:00:25;;;;;;;3.95;1.90;;;;;;;;;;5051076;28;20053;-75
2022/04/25 04:02:51;;;;;;;3.63;1.90;;;;;;;;;;5031642;28;20558;-75
2022/04/25 04:05:17;;;;;;;3.92;1.73;;;;;;;;;;5032697;28;20053;-74
2022/04/25 04:07:44;;;;;;;3.70;1.63;;;;;;;;;;5051913;28;20045;-76
2022/04/25 04:10:11;;;;;;;4.30;1.75;;;;;;;;;;5040892;28;20570;-76
2022/04/25 04:12:38;;;;;;;3.38;1.80;;;;;;;;;;5048926;28;20107;-76
2022/04/25 04:15:04;;;;;;;3.80;1.77;;;;;;;;;;5052074;28;20055;-76
2022/04/25 04:17:32;;;;;;;3.40;1.60;;;;;;;;;;5051298;28;20416;-76
2022/04/25 04:19:58;;;;;;;3.40;1.80;;;;;;;;;;5051991;28;20102;-76
2022/04/25 04:22:25;;;;;;;3.60;1.70;;;;;;;;;;5035912;28;20421;-76
2022/04/25 04:24:52;;;;;;;3.65;1.80;;;;;;;;;;5032765;28;20052;-75
2022/04/25 04:27:18;;;;;;;3.97;1.80;;;;;;;;;;5051799;28;20083;-76
2022/04/25 04:29:44;;;;;;;;;;;;;;;;;;5051616;28;20496;-76
2022/04/25 04:32:12;;;;;;;;;;;;;;;;;;5033516;28;19921;-76
2022/04/25 04:34:38;;;;;;;;;;;;;;;;;;5031970;28;19927;-76
2022/04/25 04:37:06;;;;;;;3.30;1.70;;;;;;;;;;5031960;28;20349;-76
2022/04/25 04:39:32;;;;;;;;;;;;;;;;;;5032615;28;20397;-76
2022/04/25 04:41:59;;;;;;;3.97;1.70;;;;;;;;;;5041247;28;19921;-76
2022/04/25 04:44:25;;;;;;;4.38;1.80;;;;;;;;;;5051241;28;20155;-76
2022/04/25 04:46:51;;;;;;;;;;;;;;;;;;5050416;28;20055;-76
2022/04/25 04:49:17;;;;;;;4.20;1.70;;;;;;;;;;5031703;28;19979;-76
2022/04/25 04:51:44;;;;;;;3.57;1.63;;;;;;;;;;5046231;28;20100;-76
2022/04/25 04:54:11;;;;;;;2.53;1.70;;;;;;;;;;5051357;28;20082;-76
2022/04/25 04:56:37;;;;;;;3.78;1.70;;;;;;;;;;5052442;28;20049;-76
2022/04/25 05:01:56;;;;;;;4.05;1.70;;;;;;;;;;5064968;28;20103;-77
2022/04/25 05:07:17;;;;;;;3.70;1.70;;;;;;;;;;5060787;28;20068;-78
2022/04/25 05:09:48;;;;;;;2.55;1.60;;;;;;;;;;5060833;28;20040;-79
2022/04/25 05:12:23;;;;;;;3.38;1.60;;;;;;;;;;5058603;28;20065;-79
2022/04/25 05:14:49;;;;;;;3.75;1.65;;;;;;;;;;5069383;28;20049;-80
2022/04/25 05:17:15;;;;;;;2.95;1.60;;;;;;;;;;5077971;28;20079;-79
2022/04/25 05:19:41;;;;;;;3.03;1.60;;;;;;;;;;5058932;28;20075;-79
2022/04/25 05:22:07;;;;;;;6.00;1.80;;;;;;;;;;5057614;28;20085;-79
2022/04/25 05:24:34;;;;;;;4.40;1.60;;;;;;;;;;5057720;28;19943;-79
2022/04/25 05:27:01;;;;;;;3.97;1.58;;;;;;;;;;5057569;28;19936;-80
2022/04/25 05:29:28;;;;;;;3.60;1.75;;;;;;;;;;5075769;28;20056;-79
2022/04/25 05:31:55;;;;;;;5.95;2.00;;;;;;;;;;5074551;28;20053;-80
2022/04/25 05:34:21;;;;;;;3.10;1.70;;;;;;;;;;5057426;28;20050;-78
2022/04/25 05:36:48;;;;;;;3.35;1.60;;;;;;;;;;5070176;28;20053;-78
2022/04/25 05:39:14;;;;;;;4.90;1.83;;;;;;;;;;5077312;28;20071;-80
2022/04/25 05:41:41;;;;;;;4.82;1.90;;;;;;;;;;5067141;28;20037;-79
2022/04/25 05:44:10;;;;;;;3.83;1.77;;;;;;;;;;5074698;28;20069;-80
2022/04/25 05:46:36;;;;;;;5.85;1.92;;;;;;;;;;5066957;28;20051;-77
2022/04/25 05:52:02;;;;;;;4.07;1.80;;;;;;;;;;5043957;28;20060;-77
2022/04/25 05:54:29;;;;;;;5.63;1.70;;;;;;;;;;5035260;28;20041;-77
2022/04/25 05:56:55;;;;;;;5.65;1.80;;;;;;;;;;5050723;28;20053;-77
2022/04/25 05:59:23;;;;;;;5.13;1.80;;;;;;;;;;5054052;28;20045;-77
2022/04/25 06:01:49;;;;;;;6.88;2.00;;;;;;;;;;5051830;28;20500;-78
2022/04/25 06:04:15;;;;;;;6.68;1.90;;;;;;;;;;5040190;28;20043;-78
2022/04/25 06:06:41;;;;;;;5.03;1.70;;;;;;;;;;5035226;28;20138;-76
2022/04/25 06:09:10;;;;;;;5.22;1.65;;;;;;;;;;5048486;28;20504;-74
2022/04/25 06:11:36;;;;;;;4.65;1.70;;;;;;;;;;5055462;28;20045;-74
2022/04/25 06:14:02;;;;;;;13.40;2.20;;;;;;;;;;5044657;28;20125;-77
2022/04/25 06:16:30;;;;;;;17.55;2.20;;;;;;;;;;5037023;28;20515;-76
2022/04/25 06:18:56;;;;;;;10.68;2.00;;;;;;;;;;5035685;28;20103;-75
2022/04/25 06:21:22;;;;;;;;;;;;;;;;;;5042531;28;20060;-77
2022/04/25 06:23:48;;;;;;;;;;;;;;;;;;5035925;28;19924;-75
2022/04/25 06:26:14;;;;;;;;;;;;;;;;;;5036716;28;19951;-77
2022/04/25 06:28:41;;;;;;;4.55;1.85;;;;;;;;;;5035340;28;20443;-76
2022/04/25 06:31:07;;;;;;;4.50;1.70;;;;;;;;;;5045853;28;20053;-76
2022/04/25 06:33:35;;;;;;;6.63;1.90;;;;;;;;;;5054805;28;20492;-75
2022/04/25 06:36:01;;;;;;;5.20;1.80;;;;;;;;;;5055150;28;20194;-76
2022/04/25 06:38:27;;;;;;;3.80;1.73;;;;;;;;;;5054834;28;20467;-75
2022/04/25 06:40:53;;;;;;;7.53;1.80;;;;;;;;;;5054519;28;20049;-76
2022/04/25 06:43:20;;;;;;;4.75;1.95;;;;;;;;;;5054654;28;20083;-75
2022/04/25 06:45:46;;;;;;;4.88;1.90;;;;;;;;;;5048704;28;20050;-75
2022/04/25 06:48:13;;;;;;;5.30;1.60;;;;;;;;;;5035043;28;20050;-76
2022/04/25 06:50:40;;;;;;;3.75;1.60;;;;;;;;;;5040117;28;20082;-75
2022/04/25 06:53:06;;;;;;;5.55;2.10;;;;;;;;;;5055273;28;20049;-76
2022/04/25 06:55:34;;;;;;;3.75;1.80;;;;;;;;;;5054190;28;20045;-76
2022/04/25 06:58:00;;;;;;;4.30;1.90;;;;;;;;;;5072721;22;20041;-77
2022/04/25 07:00:27;;;;;;;5.68;1.70;;;;;;;;;;5053014;28;19921;-78
2022/04/25 07:02:54;;;;;;;5.57;1.77;;;;;;;;;;5043999;28;20394;-78
2022/04/25 07:05:21;;;;;;;6.25;1.80;;;;;;;;;;5046279;28;19975;-77
2022/04/25 07:07:48;;;;;;;5.70;1.60;;;;;;;;;;5025489;28;20000;-78
2022/04/25 07:10:14;;;;;;;;;;;;;;;;;;5013859;28;20049;-78
2022/04/25 07:12:41;;;;;;;;;;;;;;;;;;5032081;28;19924;-77
2022/04/25 07:15:08;;;;;;;;;;;;;;;;;;5014355;28;20359;-78
2022/04/25 07:17:34;;;;;;;;;;;;;;;;;;5031713;28;19921;-79
2022/04/25 07:20:00;;;;;;;;;;;;;;;;;;5033502;28;19927;-77
2022/04/25 07:30:49;;;;;;;;;;;;;;;;;;5016321;28;19920;-78
2022/04/25 07:33:15;;;;;;;;;;;;;;;;;;5013140;28;19921;-78
2022/04/25 07:35:41;;;;;;;;;;;;;;;;;;5020228;28;19920;-78
2022/04/25 07:38:07;;;;;;;;;;;;;;;;;;5032470;28;19929;-78
2022/04/25 07:40:33;;;;;;;;;;;;;;;;;;5032388;28;20021;-78
2022/04/25 07:42:59;;;;;;;;;;;;;;;;;;5029484;28;20372;-78
2022/04/25 07:45:25;;;;;;;;;;;;;;;;;;5013567;28;19922;-78
2022/04/25 07:47:51;;;;;;;;;;;;;;;;;;5014009;28;19922;-78
2022/04/25 07:50:23;;;;;;;;;;;;;;;;;;5019045;28;19967;-79
2022/04/25 07:52:49;;;;;;;;;;;;;;;;;;5013314;28;19932;-78
2022/04/25 07:55:16;;;;;;;;;;;;;;;;;;5033318;28;19925;-78
2022/04/25 07:57:42;;;;;;;;;;;;;;;;;;5032871;28;19996;-77
2022/04/25 08:00:08;;;;;;;;;;;;;;;;;;5032782;28;19921;-78
2022/04/25 08:02:34;;;;;;;;;;;;;;;;;;5032283;28;19920;-78
2022/04/25 08:05:00;;;;;;;;;;;;;;;;;;5032954;28;19947;-78
2022/04/25 08:07:26;;;;;;;;;;;;;;;;;;5032825;28;19921;-78
2022/04/25 08:09:53;;;;;;;;;;;;;;;;;;5030292;28;20380;-77
2022/04/25 08:18:04;;;;;;;;;;;;;;;;;;5032767;28;19916;-77
2022/04/25 08:20:30;;;;;;;;;;;;;;;;;;5012652;28;20303;-78
2022/04/25 08:22:56;;;;;;;;;;;;;;;;;;5013538;28;19921;-78
2022/04/25 08:25:22;;;;;;;;;;;;;;;;;;5032083;28;20011;-78
2022/04/25 08:27:48;;;;;;;;;;;;;;;;;;5032827;28;19952;-78
2022/04/25 08:30:15;;;;;;;;;;;;;;;;;;5031009;28;20380;-78
2022/04/25 08:32:41;;;;;;;;;;;;;;;;;;5031453;28;19921;-77
2022/04/25 08:35:09;;;;;;;;;;;;;;;;;;5032333;28;19921;-78
2022/04/25 08:37:35;;;;;;;;;;;;;;;;;;5032316;28;20288;-78
2022/04/25 08:40:01;;;;;;;;;;;;;;;;;;5032615;28;19921;-77
2022/04/25 08:42:27;;;;;;;;;;;;;;;;;;5032304;28;19921;-78
2022/04/25 08:44:53;;;;;;;;;;;;;;;;;;5031141;28;19933;-77
2022/04/25 08:47:19;;;;;;;;;;;;;;;;;;5032440;28;19921;-77
2022/04/25 08:49:46;;;;;;;;;;;;;;;;;;5032310;28;19932;-78
2022/04/25 08:52:12;;;;;;;;;;;;;;;;;;5032493;28;19955;-78
2022/04/25 08:54:38;;;;;;;;;;;;;;;;;;5031625;28;19975;-78
2022/04/25 08:57:04;;;;;;;;;;;;;;;;;;5032084;28;19929;-78
2022/04/25 08:59:30;;;;;;;;;;;;;;;;;;5032061;28;19921;-78
2022/04/25 09:01:57;;;;;;;;;;;;;;;;;;5030268;28;20415;-78
2022/04/25 09:04:23;;;;;;;;;;;;;;;;;;5031246;28;19929;-78
2022/04/25 09:06:51;;;;;;;;;;;;;;;;;;5032364;28;20438;-78
2022/04/25 09:09:17;;;;;;;;;;;;;;;;;;5031813;28;19921;-78
2022/04/25 09:14:27;;;;;;;;;;;;;;;;;;5031078;28;19920;-78
2022/04/25 09:16:53;;;;;;;;;;;;;;;;;;5029671;28;19921;-78
2022/04/25 09:19:19;;;;;;;;;;;;;;;;;;5031592;28;19921;-78
2022/04/25 09:21:45;;;;;;;;;;;;;;;;;;5032324;28;19921;-78
2022/04/25 09:24:11;;;;;;;;;;;;;;;;;;5031484;28;19925;-78
2022/04/25 09:26:37;;;;;;;;;;;;;;;;;;5031545;28;20036;-78
2022/04/25 09:29:03;;;;;;;;;;;;;;;;;;5031004;28;19987;-78
2022/04/25 09:31:29;;;;;;;;;;;;;;;;;;5031941;28;19983;-78
2022/04/25 09:33:55;;;;;;;;;;;;;;;;;;5031683;28;19977;-78
2022/04/25 09:36:22;;;;;;;;;;;;;;;;;;5031216;28;19921;-78
2022/04/25 09:38:48;;;;;;;;;;;;;;;;;;5031792;28;19921;-78
2022/04/25 09:41:14;;;;;;;;;;;;;;;;;;5014000;28;20277;-78
2022/04/25 09:43:40;;;;;;;;;;;;;;;;;;5014823;28;19921;-78
2022/04/25 09:46:06;;;;;;;;;;;;;;;;;;5031973;28;19964;-78
2022/04/25 09:48:32;;;;;;;;;;;;;;;;;;5035996;28;19921;-78
2022/04/25 09:50:59;;;;;;;;;;;;;;;;;;5035245;28;19921;-78
2022/04/25 09:53:25;;;;;;;;;;;;;;;;;;5035083;28;19921;-77
2022/04/25 09:55:51;;;;;;;;;;;;;;;;;;5034927;28;19929;-78
2022/04/25 09:58:18;;;;;;;;;;;;;;;;;;5035415;28;19921;-78
2022/04/25 10:00:44;;;;;;;;;;;;;;;;;;5034905;28;19924;-78
2022/04/25 10:03:10;;;;;;;;;;;;;;;;;;5033973;28;19921;-78
2022/04/25 10:05:36;;;;;;;;;;;;;;;;;;5035490;28;19921;-77
2022/04/25 10:08:02;;;;;;;;;;;;;;;;;;5034234;28;19925;-77
2022/04/25 10:10:28;;;;;;;;;;;;;;;;;;5035283;28;19925;-77
2022/04/25 10:12:55;;;;;;;;;;;;;;;;;;5034214;28;19933;-77
2022/04/25 10:15:21;;;;;;;;;;;;;;;;;;5035289;28;20015;-77
2022/04/25 10:17:47;;;;;;;;;;;;;;;;;;5032915;28;19948;-77
2022/04/25 10:20:13;;;;;;;;;;;;;;;;;;5035073;28;19921;-77
2022/04/25 10:22:39;;;;;;;;;;;;;;;;;;5030296;28;19921;-79
2022/04/25 10:25:05;;;;;;;;;;;;;;;;;;5031419;28;19925;-76
2022/04/25 10:27:31;;;;;;;;;;;;;;;;;;5035151;28;19920;-75
2022/04/25 10:29:58;;;;;;;;;;;;;;;;;;5035363;28;19971;-76
2022/04/25 10:32:25;;;;;;;;;;;;;;;;;;5031487;28;20462;-76
2022/04/25 10:34:54;;;;;;;;;;;;;;;;;;5031434;28;19975;-79
2022/04/25 10:37:20;;;;;;;;;;;;;;;;;;5034263;28;20277;-77
2022/04/25 10:39:46;;;;;;;;;;;;;;;;;;5035075;28;19925;-77
2022/04/25 10:44:56;;;;;;;;;;;;;;;;;;5034439;28;19916;-77
2022/04/25 10:47:24;;;;;;;;;;;;;;;;;;5034332;28;20218;-78
2022/04/25 10:49:50;;;;;;;;;;;;;;;;;;5033493;28;19928;-77
2022/04/25 10:52:17;;;;;;;;;;;;;;;;;;5034293;28;19967;-77
2022/04/25 10:54:43;;;;;;;;;;;;;;;;;;5032757;28;19990;-79
2022/04/25 10:57:11;;;;;;;;;;;;;;;;;;5034001;28;19921;-78
2022/04/25 10:59:37;;;;;;;;;;;;;;;;;;5034172;28;19925;-79
2022/04/25 11:02:03;;;;;;;;;;;;;;;;;;5034127;28;20020;-78
2022/04/25 11:04:29;;;;;;;;;;;;;;;;;;5033339;28;20454;-78
2022/04/25 11:06:55;;;;;;;;;;;;;;;;;;5034128;28;19975;-78
2022/04/25 11:09:21;;;;;;;;;;;;;;;;;;5033797;28;20380;-78
2022/04/25 11:11:48;;;;;;;;;;;;;;;;;;5027235;28;19952;-78
2022/04/25 11:14:14;;;;;;;;;;;;;;;;;;5026868;28;20024;-78
2022/04/25 11:16:40;;;;;;;;;;;;;;;;;;5033128;28;19921;-78
2022/04/25 11:19:07;;;;;;;;;;;;;;;;;;5027938;28;19975;-78
2022/04/25 11:21:33;;;;;;;;;;;;;;;;;;5021579;28;19983;-78
2022/04/25 11:24:01;;;;;;;;;;;;;;;;;;5033856;28;19927;-78
2022/04/25 11:26:28;;;;;;;;;;;;;;;;;;5033813;28;19956;-78
2022/04/25 11:28:54;;;;;;;;;;;;;;;;;;5034209;28;19971;-78
2022/04/25 11:31:21;;;;;;;;;;;;;;;;;;5033284;28;19967;-79
2022/04/25 11:33:47;;;;;;;;;;;;;;;;;;5033472;28;19921;-78
2022/04/25 11:36:13;;;;;;;;;;;;;;;;;;5033761;28;20007;-78
2022/04/25 11:41:23;;;;;;;;;;;;;;;;;;5033764;28;20311;-78
2022/04/25 11:43:49;;;;;;;;;;;;;;;;;;5033173;28;19921;-78
2022/04/25 11:46:15;;;;;;;;;;;;;;;;;;5031346;28;19975;-78
2022/04/25 11:48:41;;;;;;;;;;;;;;;;;;5014229;28;19975;-78
2022/04/25 11:51:08;;;;;;;;;;;;;;;;;;5014004;28;19922;-78
2022/04/25 11:53:34;;;;;;;;;;;;;;;;;;5018592;28;19944;-78
2022/04/25 11:56:01;;;;;;;;;;;;;;;;;;5033114;28;19921;-78
2022/04/25 11:58:27;;;;;;;;;;;;;;;;;;5032959;28;20415;-78
2022/04/25 12:00:53;;;;;;;;;;;;;;;;;;5033003;28;19921;-78
2022/04/25 12:03:21;;;;;;;;;;;;;;;;;;5032248;28;20355;-78
2022/04/25 12:05:47;;;;;;;;;;;;;;;;;;5032374;28;19921;-78
2022/04/25 12:16:25;;;;;;;;;;;;;;;;;;5032759;28;20054;-78
2022/04/25 12:18:51;;;;;;;;;;;;;;;;;;5033410;28;19943;-78
2022/04/25 12:21:18;;;;;;;;;;;;;;;;;;5033322;28;20004;-78
2022/04/25 12:23:44;;;;;;;;;;;;;;;;;;5032851;28;19925;-78
2022/04/25 12:26:10;;;;;;;;;;;;;;;;;;5022080;28;20281;-79
2022/04/25 12:28:37;;;;;;;;;;;;;;;;;;5014344;28;19925;-79
2022/04/25 12:31:03;;;;;;;;;;;;;;;;;;5021560;28;19928;-78
2022/04/25 12:33:29;;;;;;;;;;;;;;;;;;5032417;28;19921;-78
2022/04/25 12:35:55;;;;;;;;;;;;;;;;;;5029448;28;19925;-78
2022/04/25 12:38:21;;;;;;;;;;;;;;;;;;5033028;28;19990;-74
2022/04/25 12:40:47;;;;;;;;;;;;;;;;;;5031786;28;19925;-74
2022/04/25 12:43:15;;;;;;;;;;;;;;;;;;5032083;28;20368;-74
2022/04/25 12:45:41;;;;;;;;;;;;;;;;;;5032309;28;19925;-74
2022/04/25 12:48:08;;;;;;;;;;;;;;;;;;5032552;28;19921;-74
2022/04/25 12:50:34;;;;;;;;;;;;;;;;;;5030104;28;19921;-74
2022/04/25 12:53:00;;;;;;;;;;;;;;;;;;5031582;28;20273;-74
2022/04/25 12:55:26;;;;;;;;;;;;;;;;;;5029516;28;19929;-74
2022/04/25 12:57:52;;;;;;;;;;;;;;;;;;5048949;22;19971;-72
2022/04/25 13:00:18;;;;;;;;;;;;;;;;;;5028442;28;19924;-73
2022/04/25 13:02:44;;;;;;;;;;;;;;;;;;5023141;28;19982;-74
2022/04/25 13:05:10;;;;;;;;;;;;;;;;;;5013180;28;19922;-73
2022/04/25 13:07:37;;;;;;;;;;;;;;;;;;5029960;28;19932;-73
2022/04/25 13:10:03;;;;;;;;;;;;;;;;;;5031177;28;20451;-73
2022/04/25 13:12:29;;;;;;;;;;;;;;;;;;5030679;28;19974;-73
2022/04/25 13:14:55;;;;;;;;;;;;;;;;;;5031542;28;19944;-74
2022/04/25 13:17:21;;;;;;;;;;;;;;;;;;5033502;28;20051;-75
2022/04/25 13:19:47;;;;;;;;;;;;;;;;;;5035328;28;19925;-73
2022/04/25 13:22:13;;;;;;;;;;;;;;;;;;5034775;28;20391;-74
2022/04/25 13:24:39;;;;;;;;;;;;;;;;;;5035837;28;19975;-74
2022/04/25 13:27:07;;;;;;;;;;;;;;;;;;5035621;28;20426;-74
2022/04/25 13:29:33;;;;;;;;;;;;;;;;;;5035290;28;19925;-74
2022/04/25 13:31:59;;;;;;;;;;;;;;;;;;5034983;28;19921;-74
2022/04/25 13:34:26;;;;;;;;;;;;;;;;;;5033351;28;19929;-74
2022/04/25 13:36:52;;;;;;;;;;;;;;;;;;5035362;28;20019;-74
2022/04/25 13:39:18;;;;;;;;;;;;;;;;;;5034541;28;20050;-74
2022/04/25 13:41:44;;;;;;;;;;;;;;;;;;5034493;28;19943;-74
2022/04/25 13:44:10;;;;;;;;;;;;;;;;;;5034644;28;19921;-74
2022/04/25 13:46:36;;;;;;;;;;;;;;;;;;5035038;28;20376;-74
2022/04/25 13:49:02;;;;;;;;;;;;;;;;;;5034833;28;19921;-74
2022/04/25 13:51:29;;;;;;;;;;;;;;;;;;5034884;28;19921;-74
2022/04/25 13:53:55;;;;;;;;;;;;;;;;;;5034319;28;19921;-74
2022/04/25 13:56:21;;;;;;;;;;;;;;;;;;5035037;28;19921;-74
2022/04/25 13:58:47;;;;;;;;;;;;;;;;;;5027544;28;20292;-74
2022/04/25 14:01:13;;;;;;;;;;;;;;;;;;5034184;28;19921;-74
2022/04/25 14:03:40;;;;;;;;;;;;;;;;;;5034295;28;19943;-74
2022/04/25 14:06:06;;;;;;;;;;;;;;;;;;5034295;28;19967;-74
2022/04/25 14:08:32;;;;;;;;;;;;;;;;;;5034378;28;19921;-74
2022/04/25 14:10:58;;;;;;;;;;;;;;;;;;5034254;28;19921;-74
2022/04/25 14:13:25;;;;;;;;;;;;;;;;;;5033528;28;19925;-74
2022/04/25 14:15:52;;;;;;;;;;;;;;;;;;5034492;28;19921;-74
2022/04/25 14:18:18;;;;;;;;;;;;;;;;;;5034410;28;19968;-74
2022/04/25 14:20:44;;;;;;;;;;;;;;;;;;5034361;28;20308;-74
2022/04/25 14:23:10;;;;;;;;;;;;;;;;;;5033931;28;19920;-74
2022/04/25 14:25:36;;;;;;;;;;;;;;;;;;5033777;28;19982;-73
2022/04/25 14:28:03;;;;;;;;;;;;;;;;;;5033400;28;19921;-74
2022/04/25 14:30:29;;;;;;;;;;;;;;;;;;5033909;28;19929;-74
2022/04/25 14:32:55;;;;;;;;;;;;;;;;;;5033178;28;20478;-74
2022/04/25 14:35:21;;;;;;;;;;;;;;;;;;5034231;28;19920;-74
2022/04/25 14:37:47;;;;;;;;;;;;;;;;;;5034108;28;20434;-73
2022/04/25 14:40:13;;;;;;;;;;;;;;;;;;5034315;28;19937;-74
2022/04/25 14:42:39;;;;;;;;;;;;;;;;;;5033617;28;19921;-74
2022/04/25 14:45:05;;;;;;;;;;;;;;;;;;5034143;28;19921;-74
2022/04/25 14:47:32;;;;;;;;;;;;;;;;;;5033965;28;19921;-74
2022/04/25 14:55:25;;;;;;;;;;;;;;;;;;5032587;28;19916;-74
2022/04/25 14:57:51;;;;;;;;;;;;;;;;;;5033792;28;19921;-74
2022/04/25 15:00:17;;;;;;;;;;;;;;;;;;5034206;28;20007;-73
2022/04/25 15:02:43;;;;;;;;;;;;;;;;;;5033546;28;19987;-72
2022/04/25 15:05:09;;;;;;;;;;;;;;;;;;5033610;28;20442;-76
2022/04/25 15:07:35;;;;;;;;;;;;;;;;;;5034069;28;19967;-73
2022/04/25 15:10:01;;;;;;;;;;;;;;;;;;5033676;28;19921;-73
2022/04/25 15:12:28;;;;;;;;;;;;;;;;;;5033305;28;19971;-72
2022/04/25 15:14:54;;;;;;;;;;;;;;;;;;5032478;28;19956;-74
2022/04/25 15:17:20;;;;;;;;;;;;;;;;;;5033727;28;20339;-73
2022/04/25 15:19:46;;;;;;;;;;;;;;;;;;5033115;28;19924;-72
2022/04/25 15:22:12;;;;;;;;;;;;;;;;;;5032615;28;20364;-71
2022/04/25 15:24:38;;;;;;;;;;;;;;;;;;5032425;28;19920;-72
2022/04/25 15:27:04;;;;;;;;;;;;;;;;;;5032967;28;19986;-73
2022/04/25 15:29:30;;;;;;;;;;;;;;;;;;5020487;28;20320;-75
2022/04/25 15:31:56;;;;;;;;;;;;;;;;;;5018651;28;19922;-73
2022/04/25 15:34:22;;;;;;;;;;;;;;;;;;5015710;28;19983;-73
2022/04/25 15:36:48;;;;;;;;;;;;;;;;;;5030785;28;19979;-72
2022/04/25 15:39:14;;;;;;;;;;;;;;;;;;5032133;28;20446;-73
2022/04/25 15:41:41;;;;;;;;;;;;;;;;;;5032831;28;19933;-75
2022/04/25 15:44:07;;;;;;;;;;;;;;;;;;5029622;28;19920;-72
2022/04/25 15:46:33;;;;;;;;;;;;;;;;;;5032623;28;19921;-72
2022/04/25 15:48:59;;;;;;;;;;;;;;;;;;5032764;28;20450;-73
2022/04/25 15:51:25;;;;;;;;;;;;;;;;;;5032750;28;19975;-72
2022/04/25 15:59:18;;;;;;;;;;;;;;;;;;5032571;28;19920;-75
2022/04/25 16:01:45;;;;;;;;;;;;;;;;;;5030467;28;20469;-74
2022/04/25 16:04:11;;;;;;;;;;;;;;;;;;5031754;28;20037;-74
2022/04/25 16:06:37;;;;;;;;;;;;;;;;;;5032637;28;19971;-74
2022/04/25 16:09:03;;;;;;;;;;;;;;;;;;5032188;28;21490;-73
2022/04/25 16:11:29;;;;;;;;;;;;;;;;;;5031640;28;19921;-74
2022/04/25 16:13:55;;;;;;;;;;;;;;;;;;5031830;28;19971;-74
2022/04/25 16:16:21;;;;;;;;;;;;;;;;;;5031747;28;19975;-74
2022/04/25 16:18:47;;;;;;;;;;;;;;;;;;5032073;28;20366;-74
2022/04/25 16:21:14;;;;;;;;;;;;;;;;;;5031814;28;19924;-74
2022/04/25 16:23:40;;;;;;;;;;;;;;;;;;5032056;28;19925;-74
2022/04/25 16:26:06;;;;;;;;;;;;;;;;;;5031974;28;19921;-74
2022/04/25 16:28:32;;;;;;;;;;;;;;;;;;5031549;28;19921;-72
2022/04/25 16:30:58;;;;;;;;;;;;;;;;;;5031855;28;19921;-73
2022/04/25 16:33:24;;;;;;;;;;;;;;;;;;5031416;28;19967;-73
2022/04/25 16:35:50;;;;;;;;;;;;;;;;;;5032421;28;19976;-72
2022/04/25 16:38:16;;;;;;;;;;;;;;;;;;5031899;28;20396;-73
2022/04/25 16:40:42;;;;;;;;;;;;;;;;;;5031988;28;19921;-73
2022/04/25 16:43:09;;;;;;;;;;;;;;;;;;5031011;28;19921;-71
2022/04/25 16:45:35;;;;;;;;;;;;;;;;;;5031798;28;19979;-74